メインページ
METAR-TAF:

METAR-TAF

空港 :

ワルシャワ, ポーランド

ワルシャワ・ショパン空港

緯度: 52-10N, 経度: 020-58E, 海抜: 106m

現時点の気象観測

当レポートは17分前の15:30(UTC)に作成
北/北西の風 18kt
気温 20°C
湿度 37%
気圧 1026 hPa
視程10km以上
1,500メートル以下は雲なし、積乱雲なし

METAR: EPWA 191530Z 34018KT CAVOK 20/05 Q1026 NOSIG

時間: 17:47 (15:47 UTC)

予報

当レポートは1時間17分前の14:30(UTC)に作成
予報は19日の 15時(UTC)から 20日の 15時(UTC)まで有効
北/北西の風 12kt
視程10km以上
1,500メートル以下は雲なし、積乱雲なし
確率 40% :
19日の 15時(UTC)から 19日の 17時(UTC)まで一時的に
の風 15kt、最大25ktの突風を伴う
20日の 00時(UTC)から 20日の 03時(UTC)まで徐々に
変向風 2kt

TAF: EPWA 191430Z 1915/2015 34012KT CAVOK PROB40 TEMPO 1915/1917 35015G25KT BECMG 2000/2003 VRB02KT

4,000以上の空港の気象観測と天気予報(METAR報とTAF報)

利用可能な観測所は地図上に黄色い丸と赤い丸で示す。

丸の上にカーソルを重ねると観測所名を参照できる。

次にクリックすると気象観測と天気予報を参照できる。

マップの切り替え:黒色「×」印の緑ボタンをクリックして拡大、「-」印の緑ボタンをクリックして縮小、緑色の三角印をクリックして隣りの地図に切り替え


METAR-TAF: